Time;durP1;ratioP1;P1;durP2;ratioP2;P2;SDS_P1;SDS_P2;PMS_P1;PMS_P2;Temp;Humidity;BMP_temperature;BMP_pressure;BME280_temperature;BME280_humidity;BME280_pressure;Samples;Min_cycle;Max_cycle;Signal;HPM_P1;HPM_P2
2023/06/12 00:02:09;;;;;;;6.63;5.45;;;22.10;93.90;;;;;;5018907;28;20128;-73
2023/06/12 00:04:35;;;;;;;7.25;5.55;;;21.90;94.10;;;;;;5044287;28;20085;-73
2023/06/12 00:07:02;;;;;;;7.45;5.40;;;21.90;94.00;;;;;;5014620;28;20084;-72
2023/06/12 00:09:28;;;;;;;8.18;5.32;;;21.90;93.90;;;;;;5021883;28;20041;-73
2023/06/12 00:11:54;;;;;;;6.20;5.22;;;21.80;93.80;;;;;;5024652;28;20041;-73
2023/06/12 00:14:20;;;;;;;7.80;5.40;;;21.70;93.90;;;;;;5017619;28;20092;-73
2023/06/12 00:16:45;;;;;;;6.72;5.15;;;21.70;94.00;;;;;;5025540;28;20132;-72
2023/06/12 00:19:15;;;;;;;7.55;5.18;;;21.60;94.00;;;;;;5021373;28;20044;-72
2023/06/12 00:21:41;;;;;;;6.20;5.07;;;21.50;94.10;;;;;;5029306;28;20049;-73
2023/06/12 00:24:08;;;;;;;6.70;5.10;;;21.50;94.20;;;;;;5020484;28;20043;-72
2023/06/12 00:26:37;;;;;;;6.72;4.80;;;21.40;94.10;;;;;;5020314;28;20081;-73
2023/06/12 00:29:03;;;;;;;7.55;5.20;;;21.30;94.30;;;;;;5022867;28;20056;-73
2023/06/12 00:31:29;;;;;;;8.40;5.18;;;21.30;94.40;;;;;;5013907;28;20033;-73
2023/06/12 00:33:55;;;;;;;6.07;5.00;;;21.20;94.50;;;;;;5015360;28;20049;-73
2023/06/12 00:36:20;;;;;;;8.10;5.30;;;21.10;94.70;;;;;;5026930;28;20473;-73
2023/06/12 00:38:46;;;;;;;7.53;4.97;;;21.10;94.80;;;;;;5021168;28;20382;-73
2023/06/12 00:41:11;;;;;;;6.47;5.10;;;21.10;94.90;;;;;;5013533;28;20405;-72
2023/06/12 00:43:38;;;;;;;6.53;5.15;;;21.10;95.00;;;;;;5028107;28;20041;-72
2023/06/12 00:46:04;;;;;;;7.00;5.25;;;21.00;95.10;;;;;;5016512;28;20477;-72
2023/06/12 00:48:30;;;;;;;5.47;4.57;;;21.00;95.20;;;;;;5026140;28;20045;-73
2023/06/12 00:50:57;;;;;;;5.22;4.72;;;21.00;95.40;;;;;;5031646;28;20041;-73
2023/06/12 00:53:23;;;;;;;6.45;5.00;;;20.90;95.30;;;;;;5017153;28;20489;-73
2023/06/12 00:55:49;;;;;;;5.65;4.75;;;20.80;95.50;;;;;;5015821;28;20103;-72
2023/06/12 00:58:14;;;;;;;7.60;5.25;;;20.80;95.50;;;;;;5013140;28;20045;-73
2023/06/12 01:00:40;;;;;;;6.15;4.60;;;20.70;95.50;;;;;;5022165;28;20184;-72
2023/06/12 01:03:13;;;;;;;5.65;5.03;;;20.70;95.80;;;;;;5016127;28;20045;-73
2023/06/12 01:05:42;;;;;;;6.32;5.70;;;20.70;95.70;;;;;;5038453;28;20383;-73
2023/06/12 01:08:26;;;;;;;6.07;5.47;;;20.70;95.80;;;;;;5021885;28;20482;-73
2023/06/12 01:10:51;;;;;;;7.82;5.57;;;20.80;95.70;;;;;;5014468;28;20129;-73
2023/06/12 01:13:21;;;;;;;7.70;5.40;;;20.70;95.90;;;;;;5017729;28;20046;-73
2023/06/12 01:15:47;;;;;;;5.53;4.75;;;20.60;96.00;;;;;;5012463;28;20053;-73
2023/06/12 01:18:12;;;;;;;6.00;4.95;;;20.50;96.20;;;;;;5013209;28;20057;-72
2023/06/12 01:20:40;;;;;;;7.68;5.38;;;20.40;96.40;;;;;;5030058;28;20050;-73
2023/06/12 01:23:36;;;;;;;7.40;5.20;;;20.40;96.60;;;;;;5020305;28;20045;-72
2023/06/12 01:26:25;;;;;;;6.95;5.07;;;20.40;96.50;;;;;;5022169;28;20059;-73
2023/06/12 01:29:20;;;;;;;8.00;5.13;;;20.20;96.90;;;;;;5017256;28;20045;-72
2023/06/12 01:32:03;;;;;;;8.30;5.32;;;20.10;97.20;;;;;;5017938;28;20046;-73
2023/06/12 01:34:51;;;;;;;6.13;5.35;;;20.10;97.30;;;;;;5021164;28;20054;-73
2023/06/12 01:37:31;;;;;;;6.43;5.32;;;20.00;97.50;;;;;;5022017;28;20045;-74
2023/06/12 01:39:58;;;;;;;5.45;4.95;;;20.00;97.90;;;;;;5023826;28;20128;-72
2023/06/12 01:42:26;;;;;;;8.45;5.07;;;19.90;97.80;;;;;;5020863;28;20409;-72
2023/06/12 01:44:52;;;;;;;6.22;4.88;;;19.90;98.10;;;;;;5021437;28;20037;-71
2023/06/12 01:47:18;;;;;;;7.60;4.88;;;19.80;98.30;;;;;;5017181;28;20056;-73
2023/06/12 01:49:44;;;;;;;6.00;4.85;;;19.70;98.60;;;;;;5021111;28;20116;-71
2023/06/12 01:52:09;;;;;;;7.22;4.65;;;19.70;99.00;;;;;;5026464;28;20128;-71
2023/06/12 01:54:35;;;;;;;7.05;5.00;;;19.70;98.80;;;;;;5023327;28;20069;-71
2023/06/12 01:57:02;;;;;;;5.95;5.00;;;19.60;99.00;;;;;;5022528;28;20449;-72
2023/06/12 01:59:27;;;;;;;8.32;5.35;;;19.70;98.90;;;;;;5022272;28;20118;-72
2023/06/12 02:01:53;;;;;;;7.00;5.07;;;19.60;99.20;;;;;;5023199;28;20061;-71
2023/06/12 02:04:19;;;;;;;6.30;4.70;;;19.60;99.40;;;;;;5026790;28;20042;-72
2023/06/12 02:06:45;;;;;;;7.57;4.95;;;19.60;99.50;;;;;;5024109;28;20099;-71
2023/06/12 02:09:11;;;;;;;7.40;4.95;;;19.60;99.60;;;;;;5019922;28;20482;-71
2023/06/12 02:11:37;;;;;;;6.65;4.78;;;19.50;99.80;;;;;;5022709;28;20056;-71
2023/06/12 02:14:02;;;;;;;7.32;4.80;;;19.50;99.90;;;;;;5024102;28;20048;-72
2023/06/12 02:16:28;;;;;;;8.30;5.00;;;19.50;99.90;;;;;;5017416;28;20049;-72
2023/06/12 02:18:53;;;;;;;6.93;5.30;;;19.50;99.90;;;;;;5023603;28;20068;-72
2023/06/12 02:21:19;;;;;;;7.55;4.65;;;19.50;99.90;;;;;;5020746;28;20069;-71
2023/06/12 02:23:45;;;;;;;5.85;4.90;;;19.50;99.90;;;;;;5021666;28;20048;-71
2023/06/12 02:26:10;;;;;;;7.40;5.10;;;19.30;99.90;;;;;;5014668;28;20042;-72
2023/06/12 02:28:40;;;;;;;7.72;4.70;;;19.30;99.90;;;;;;5024929;28;20095;-72
2023/06/12 02:31:06;;;;;;;6.93;4.90;;;19.20;99.90;;;;;;5018131;28;20033;-72
2023/06/12 02:33:32;;;;;;;5.25;4.70;;;19.20;99.90;;;;;;5012948;28;20120;-71
2023/06/12 02:35:57;;;;;;;8.93;4.72;;;19.20;99.90;;;;;;5019856;28;20045;-72
2023/06/12 02:38:23;;;;;;;7.20;4.85;;;19.20;99.90;;;;;;5026152;28;20077;-72
2023/06/12 02:40:48;;;;;;;7.03;4.80;;;19.20;99.90;;;;;;5024818;28;20390;-71
2023/06/12 02:43:14;;;;;;;5.25;4.63;;;19.30;99.90;;;;;;5022128;28;20046;-71
2023/06/12 02:45:40;;;;;;;8.30;4.60;;;19.20;99.90;;;;;;5014572;28;20045;-72
2023/06/12 02:48:05;;;;;;;8.00;4.43;;;19.20;99.90;;;;;;5012976;28;20057;-72
2023/06/12 02:50:31;;;;;;;6.03;5.00;;;19.10;99.90;;;;;;5024763;28;20405;-72
2023/06/12 02:52:56;;;;;;;7.40;5.25;;;19.10;99.90;;;;;;5025594;28;20038;-71
2023/06/12 02:55:22;;;;;;;7.13;4.43;;;19.10;99.90;;;;;;5027619;28;20144;-72
2023/06/12 02:57:48;;;;;;;7.00;5.20;;;19.00;99.90;;;;;;5018506;28;20172;-71
2023/06/12 03:00:14;;;;;;;7.47;4.85;;;19.10;99.90;;;;;;5016398;28;20038;-71
2023/06/12 03:02:42;;;;;;;6.65;4.70;;;18.90;99.90;;;;;;5021975;28;20045;-72
2023/06/12 03:05:12;;;;;;;9.35;4.70;;;18.80;99.90;;;;;;5018423;28;20042;-72
2023/06/12 03:07:40;;;;;;;7.93;5.18;;;18.80;99.90;;;;;;5014452;28;20042;-71
2023/06/12 03:10:07;;;;;;;5.05;4.43;;;18.70;99.90;;;;;;5020054;28;20101;-72
2023/06/12 03:12:33;;;;;;;8.55;4.80;;;18.60;99.90;;;;;;5021008;28;20049;-71
2023/06/12 03:15:00;;;;;;;5.93;4.60;;;18.60;99.90;;;;;;5016690;28;20038;-72
2023/06/12 03:17:25;;;;;;;6.00;4.60;;;18.60;99.90;;;;;;5012537;28;20132;-72
2023/06/12 03:19:51;;;;;;;6.32;4.60;;;18.70;99.90;;;;;;5024352;28;20470;-72
2023/06/12 03:22:16;;;;;;;6.68;4.32;;;18.50;99.90;;;;;;5016147;28;20045;-72
2023/06/12 03:24:43;;;;;;;9.10;4.70;;;18.50;99.90;;;;;;5020963;28;20512;-72
2023/06/12 03:27:10;;;;;;;8.80;5.05;;;18.30;99.90;;;;;;5021687;28;20045;-72
2023/06/12 03:29:36;;;;;;;7.13;4.68;;;18.40;99.90;;;;;;5017205;28;20046;-71
2023/06/12 03:32:02;;;;;;;5.80;4.43;;;18.40;99.90;;;;;;5026144;28;20038;-72
2023/06/12 03:34:28;;;;;;;5.75;4.13;;;18.40;99.90;;;;;;5016641;28;20049;-72
2023/06/12 03:36:54;;;;;;;5.35;4.20;;;18.20;99.90;;;;;;5015333;28;20129;-71
2023/06/12 03:39:20;;;;;;;8.27;5.20;;;18.30;99.90;;;;;;5026409;28;20129;-72
2023/06/12 03:41:56;;;;;;;6.35;4.75;;;18.20;99.90;;;;;;5022316;28;20041;-72
2023/06/12 03:44:22;;;;;;;7.22;4.78;;;18.30;99.90;;;;;;5027143;28;20397;-71
2023/06/12 03:46:48;;;;;;;9.10;5.13;;;18.30;99.90;;;;;;5014258;28;20038;-72
2023/06/12 03:49:14;;;;;;;6.85;4.30;;;18.40;99.90;;;;;;5032214;28;20415;-72
2023/06/12 03:51:40;;;;;;;7.20;4.63;;;18.20;99.90;;;;;;5020887;28;20112;-71
2023/06/12 03:54:06;;;;;;;6.30;4.55;;;18.20;99.90;;;;;;5025230;28;20504;-72
2023/06/12 03:56:32;;;;;;;8.45;4.93;;;18.20;99.90;;;;;;5023767;28;20393;-72
2023/06/12 03:58:58;;;;;;;12.32;4.95;;;18.10;99.90;;;;;;5024565;28;20362;-72
2023/06/12 04:01:24;;;;;;;5.88;4.28;;;18.20;99.90;;;;;;5023554;28;20072;-72
2023/06/12 04:03:51;;;;;;;7.80;4.72;;;18.20;99.90;;;;;;5026493;28;20038;-72
2023/06/12 04:06:17;;;;;;;7.22;4.13;;;18.20;99.90;;;;;;5012292;28;20572;-72
2023/06/12 04:08:44;;;;;;;7.13;4.57;;;18.40;99.90;;;;;;5016526;28;20045;-71
2023/06/12 04:11:14;;;;;;;5.28;4.47;;;18.40;99.90;;;;;;5017237;28;20046;-72
2023/06/12 04:13:40;;;;;;;7.15;5.25;;;18.50;99.90;;;;;;5018196;28;20049;-72
2023/06/12 04:16:07;;;;;;;6.00;4.43;;;18.60;99.90;;;;;;5020701;28;20414;-72
2023/06/12 04:18:33;;;;;;;6.57;4.30;;;18.50;99.90;;;;;;5022767;28;20052;-72
2023/06/12 04:21:00;;;;;;;6.03;4.90;;;18.70;99.90;;;;;;5019259;28;20041;-72
2023/06/12 04:23:31;;;;;;;7.68;4.50;;;18.80;99.90;;;;;;5017075;28;20061;-72
2023/06/12 04:26:04;;;;;;;7.38;4.78;;;18.80;99.90;;;;;;5015697;28;20514;-72
2023/06/12 04:28:33;;;;;;;6.35;4.57;;;18.90;99.90;;;;;;5016190;28;20405;-72
2023/06/12 04:30:59;;;;;;;9.75;5.00;;;18.70;99.90;;;;;;5013652;28;20049;-71
2023/06/12 04:33:30;;;;;;;9.23;4.70;;;18.60;99.90;;;;;;5016934;28;20089;-73
2023/06/12 04:36:01;;;;;;;7.20;4.25;;;18.70;99.90;;;;;;5012180;28;20051;-72
2023/06/12 04:38:30;;;;;;;7.40;4.40;;;18.80;99.90;;;;;;5018595;28;20560;-72
2023/06/12 04:40:58;;;;;;;5.10;4.30;;;18.90;99.90;;;;;;5020924;28;20052;-71
2023/06/12 04:43:24;;;;;;;5.57;4.60;;;19.00;99.90;;;;;;5030924;28;20060;-71
2023/06/12 04:45:51;;;;;;;7.20;4.68;;;19.00;99.90;;;;;;5028886;28;20046;-71
2023/06/12 04:48:18;;;;;;;8.15;4.47;;;19.00;99.90;;;;;;5030249;28;20041;-71
2023/06/12 04:50:47;;;;;;;6.00;4.43;;;19.00;99.90;;;;;;5026343;28;20042;-71
2023/06/12 04:53:13;;;;;;;6.57;4.53;;;19.30;99.90;;;;;;5020141;28;20057;-71
2023/06/12 04:55:40;;;;;;;10.80;4.63;;;19.30;99.90;;;;;;5023037;28;20044;-71
2023/06/12 04:58:06;;;;;;;9.70;4.63;;;19.40;99.90;;;;;;5022387;28;20041;-71
2023/06/12 05:00:32;;;;;;;9.13;4.70;;;19.40;99.90;;;;;;5024617;28;20515;-71
2023/06/12 05:02:59;;;;;;;6.60;4.57;;;19.40;99.90;;;;;;5027426;28;20400;-72
2023/06/12 05:05:25;;;;;;;7.13;4.57;;;19.40;99.90;;;;;;5025817;28;20043;-72
2023/06/12 05:07:51;;;;;;;8.98;4.93;;;19.50;99.90;;;;;;5021081;28;20045;-71
2023/06/12 05:10:17;;;;;;;7.18;4.25;;;19.40;99.90;;;;;;5026309;28;20042;-72
2023/06/12 05:12:43;;;;;;;7.53;3.88;;;19.40;99.90;;;;;;5023467;28;20523;-71
2023/06/12 05:15:09;;;;;;;9.07;4.75;;;19.30;99.90;;;;;;5022476;28;20041;-72
2023/06/12 05:17:36;;;;;;;8.27;4.63;;;19.30;99.90;;;;;;5024340;28;20056;-71
2023/06/12 05:20:04;;;;;;;7.10;4.88;;;19.50;99.90;;;;;;5027772;28;20080;-71
2023/06/12 05:22:30;;;;;;;6.72;4.95;;;19.50;99.90;;;;;;5014753;28;20062;-70
2023/06/12 05:24:55;;;;;;;8.60;4.75;;;19.50;99.90;;;;;;5021031;28;20125;-71
2023/06/12 05:27:21;;;;;;;8.98;4.40;;;19.50;99.90;;;;;;5022783;28;20417;-72
2023/06/12 05:29:46;;;;;;;6.35;4.47;;;19.50;99.90;;;;;;5020434;28;20030;-71
2023/06/12 05:32:12;;;;;;;5.25;4.60;;;19.60;99.90;;;;;;5017265;28;20050;-71
2023/06/12 05:34:38;;;;;;;6.45;4.40;;;19.60;99.90;;;;;;5041413;28;20133;-71
2023/06/12 05:37:04;;;;;;;8.05;4.63;;;19.60;99.90;;;;;;5016797;28;20038;-71
2023/06/12 05:39:29;;;;;;;5.88;4.38;;;19.50;99.90;;;;;;5027020;28;20045;-71
2023/06/12 05:41:55;;;;;;;6.15;4.38;;;19.50;99.90;;;;;;5023417;28;20041;-72
2023/06/12 05:44:21;;;;;;;7.38;4.70;;;19.70;99.90;;;;;;5018649;28;20095;-70
2023/06/12 05:46:50;;;;;;;8.07;4.65;;;19.70;99.90;;;;;;5016483;28;20369;-71
2023/06/12 05:49:16;;;;;;;7.40;4.30;;;19.70;99.90;;;;;;5022532;28;20053;-71
2023/06/12 05:51:41;;;;;;;7.63;5.00;;;19.90;99.90;;;;;;5022636;28;20045;-72
2023/06/12 05:54:07;;;;;;;8.63;4.43;;;19.90;99.90;;;;;;5021955;28;20052;-71
2023/06/12 05:56:33;;;;;;;8.07;4.80;;;19.90;99.90;;;;;;5022178;28;20049;-71
2023/06/12 05:58:58;;;;;;;6.65;4.60;;;20.00;99.90;;;;;;5025963;28;20040;-70
2023/06/12 06:01:25;;;;;;;7.00;4.70;;;20.00;99.90;;;;;;5016782;28;20037;-71
2023/06/12 06:03:51;;;;;;;7.30;4.82;;;20.10;99.90;;;;;;5022558;28;20083;-71
2023/06/12 06:06:17;;;;;;;8.63;4.97;;;20.00;99.90;;;;;;5020115;28;20041;-72
2023/06/12 06:08:43;;;;;;;10.27;4.95;;;20.10;99.90;;;;;;5020907;28;20034;-71
2023/06/12 06:11:09;;;;;;;10.23;5.03;;;20.10;99.90;;;;;;5014232;28;20042;-71
2023/06/12 06:13:34;;;;;;;19.60;7.05;;;20.20;99.90;;;;;;5024485;28;20504;-71
2023/06/12 06:16:03;;;;;;;73.47;12.57;;;20.30;99.90;;;;;;5019549;28;20541;-71
2023/06/12 06:18:29;;;;;;;18.63;6.47;;;20.30;99.90;;;;;;5023441;28;20404;-71
2023/06/12 06:20:55;;;;;;;8.68;4.93;;;20.30;99.90;;;;;;5018152;28;20112;-71
2023/06/12 06:23:21;;;;;;;9.63;4.63;;;20.30;99.90;;;;;;5017512;28;20461;-72
2023/06/12 06:25:48;;;;;;;10.63;5.22;;;20.30;99.90;;;;;;5017795;28;20038;-71
2023/06/12 06:28:14;;;;;;;8.65;5.03;;;20.40;99.90;;;;;;5023239;28;20041;-71
2023/06/12 06:30:40;;;;;;;7.22;4.43;;;20.50;99.90;;;;;;5018206;28;20034;-71
2023/06/12 06:33:06;;;;;;;10.23;5.22;;;20.50;99.90;;;;;;5021601;28;20456;-71
2023/06/12 06:35:31;;;;;;;12.15;5.30;;;20.40;99.90;;;;;;5025806;28;20072;-71
2023/06/12 06:37:57;;;;;;;20.42;6.47;;;20.50;99.90;;;;;;5018838;28;20076;-71
2023/06/12 06:40:24;;;;;;;17.30;5.30;;;20.50;99.90;;;;;;5020931;28;20042;-71
2023/06/12 06:42:50;;;;;;;15.40;6.38;;;20.60;99.90;;;;;;5025484;28;20040;-71
2023/06/12 06:45:16;;;;;;;16.65;5.93;;;20.60;99.90;;;;;;5016867;28;20045;-71
2023/06/12 06:47:41;;;;;;;13.98;5.80;;;20.70;99.90;;;;;;5024168;28;20042;-72
2023/06/12 06:50:07;;;;;;;12.45;6.35;;;20.60;99.90;;;;;;5027209;28;20534;-71
2023/06/12 06:52:33;;;;;;;9.13;5.32;;;20.70;99.90;;;;;;5020009;28;20049;-72
2023/06/12 06:54:59;;;;;;;10.35;5.07;;;20.80;99.90;;;;;;5023229;28;20046;-71
2023/06/12 06:57:25;;;;;;;11.68;6.00;;;;;;;;;;5022407;28;20053;-71
2023/06/12 06:59:54;;;;;;;11.07;5.72;;;21.10;99.90;;;;;;5026054;28;20044;-71
2023/06/12 07:02:20;;;;;;;14.50;5.57;;;21.10;99.90;;;;;;5021656;28;20041;-72
2023/06/12 07:04:46;;;;;;;7.60;4.68;;;;;;;;;;5012109;28;20041;-71
2023/06/12 07:07:13;;;;;;;8.40;5.15;;;21.30;99.90;;;;;;5013574;28;20042;-71
2023/06/12 07:09:38;;;;;;;10.30;5.00;;;21.40;99.90;;;;;;5027035;28;20171;-71
2023/06/12 07:12:05;;;;;;;9.75;5.65;;;21.50;99.90;;;;;;5014321;28;20037;-72
2023/06/12 07:14:31;;;;;;;11.88;5.53;;;21.50;99.90;;;;;;5019679;28;20037;-71
2023/06/12 07:16:56;;;;;;;9.90;5.30;;;21.50;99.90;;;;;;5014263;28;20047;-72
2023/06/12 07:19:22;;;;;;;27.80;6.75;;;21.50;99.90;;;;;;5031203;28;20516;-72
2023/06/12 07:21:48;;;;;;;9.95;5.20;;;21.70;99.90;;;;;;5026334;28;20119;-72
2023/06/12 07:24:17;;;;;;;7.53;4.97;;;;;;;;;;5021671;28;20053;-72
2023/06/12 07:26:43;;;;;;;11.85;5.80;;;21.90;99.90;;;;;;5029096;28;20053;-72
2023/06/12 07:29:10;;;;;;;8.32;5.22;;;;;;;;;;5028271;28;20041;-72
2023/06/12 07:31:36;;;;;;;8.60;5.35;;;22.10;99.90;;;;;;5026849;28;20050;-72
2023/06/12 07:34:02;;;;;;;10.23;5.30;;;22.00;99.90;;;;;;5018457;28;20116;-72
2023/06/12 07:36:31;;;;;;;8.80;5.10;;;22.10;99.90;;;;;;5014976;28;20049;-72
2023/06/12 07:38:57;;;;;;;12.98;4.70;;;22.20;99.90;;;;;;5019298;28;20037;-72
2023/06/12 07:41:22;;;;;;;7.45;5.18;;;22.30;99.90;;;;;;5030192;28;20046;-72
2023/06/12 07:43:48;;;;;;;8.55;5.40;;;22.40;99.90;;;;;;5021742;28;20041;-72
2023/06/12 07:46:15;;;;;;;9.38;5.28;;;;;;;;;;5027229;28;20045;-72
2023/06/12 07:48:41;;;;;;;11.32;5.28;;;;;;;;;;5029917;28;20102;-72
2023/06/12 07:51:10;;;;;;;8.23;5.05;;;22.50;99.90;;;;;;5026006;28;20049;-72
2023/06/12 07:53:36;;;;;;;9.40;5.13;;;;;;;;;;5024611;28;20397;-72
2023/06/12 07:56:02;;;;;;;6.60;5.18;;;;;;;;;;5019165;28;20048;-72
2023/06/12 07:58:30;;;;;;;6.68;4.93;;;22.90;99.90;;;;;;5026061;28;20045;-72
2023/06/12 08:00:56;;;;;;;9.38;5.15;;;23.00;99.90;;;;;;5022337;28;20060;-72
2023/06/12 08:03:24;;;;;;;12.73;5.63;;;23.10;99.90;;;;;;5018613;28;20050;-72
2023/06/12 08:05:53;;;;;;;12.60;5.82;;;;;;;;;;5021150;28;20038;-72
2023/06/12 08:08:20;;;;;;;9.43;5.25;;;;;;;;;;5014453;28;20089;-72
2023/06/12 08:10:46;;;;;;;7.75;5.00;;;;;;;;;;5017513;28;20064;-72
2023/06/12 08:13:12;;;;;;;12.65;5.20;;;;;;;;;;5018412;28;20049;-72
2023/06/12 08:15:38;;;;;;;8.15;5.22;;;;;;;;;;5017063;28;20227;-72
2023/06/12 08:18:04;;;;;;;8.82;4.95;;;;;;;;;;5014610;28;20128;-72
2023/06/12 08:20:31;;;;;;;10.85;5.20;;;;;;;;;;5017932;28;20136;-72
2023/06/12 08:22:57;;;;;;;6.57;4.70;;;23.10;99.90;;;;;;5026093;28;20124;-72
2023/06/12 08:25:23;;;;;;;13.25;5.20;;;23.50;99.90;;;;;;5016294;28;20133;-72
2023/06/12 08:27:49;;;;;;;8.63;5.22;;;23.50;99.90;;;;;;5017043;28;20048;-72
2023/06/12 08:30:17;;;;;;;12.50;4.90;;;23.60;99.90;;;;;;5028793;28;20124;-72
2023/06/12 08:32:45;;;;;;;11.10;4.90;;;23.70;99.90;;;;;;5018985;28;20061;-72
2023/06/12 08:35:11;;;;;;;11.43;4.63;;;23.70;99.90;;;;;;5020729;28;20045;-72
2023/06/12 08:37:36;;;;;;;12.30;4.80;;;23.70;99.90;;;;;;5017963;28;20405;-72
2023/06/12 08:40:03;;;;;;;7.72;4.95;;;23.90;99.90;;;;;;5022272;28;20038;-71
2023/06/12 08:42:30;;;;;;;11.38;5.07;;;23.90;99.90;;;;;;5036512;28;20053;-72
2023/06/12 08:45:03;;;;;;;8.60;5.03;;;23.90;99.90;;;;;;5023506;28;20045;-72
2023/06/12 08:47:33;;;;;;;11.20;4.90;;;;;;;;;;5018048;28;20045;-72
2023/06/12 08:49:59;;;;;;;8.68;4.70;;;;;;;;;;5029540;28;20042;-72
2023/06/12 08:52:26;;;;;;;8.23;4.55;;;;;;;;;;5021139;28;20045;-72
2023/06/12 08:54:52;;;;;;;11.57;5.15;;;;;;;;;;5018785;28;20354;-72
2023/06/12 09:38:48;;;;;;;8.00;5.00;;;;;;;;;;5109622;27;20410;-71
2023/06/12 09:41:15;;;;;;;6.90;4.03;;;;;;;;;;5090619;28;20058;-71
2023/06/12 09:43:41;;;;;;;6.50;4.00;;;;;;;;;;5106382;28;20043;-72
2023/06/12 09:46:08;;;;;;;9.13;4.20;;;;;;;;;;5105890;28;20082;-71
2023/06/12 09:48:38;;;;;;;7.57;4.60;;;;;;;;;;5088324;28;20147;-71
2023/06/12 09:51:05;;;;;;;5.97;4.03;;;;;;;;;;5104854;28;20050;-72
2023/06/12 09:53:33;;;;;;;5.68;4.43;;;;;;;;;;5100197;28;20090;-72
2023/06/12 09:55:59;;;;;;;7.47;4.05;;;;;;;;;;5104267;28;20046;-72
2023/06/12 09:58:26;;;;;;;5.53;4.03;;;;;;;;;;5083629;28;20044;-72
2023/06/12 10:00:55;;;;;;;4.60;3.45;;;;;;;;;;5088381;28;20545;-71
2023/06/12 10:03:26;;;;;;;6.78;4.60;;;;;;;;;;5107813;28;20058;-72
2023/06/12 10:05:53;;;;;;;6.03;3.95;;;;;;;;;;5106136;28;20509;-74
2023/06/12 10:08:19;;;;;;;5.85;3.97;;;;;;;;;;5105644;28;20055;-72
2023/06/12 10:10:46;;;;;;;6.93;4.40;;;;;;;;;;5103823;28;20046;-73
2023/06/12 10:13:13;;;;;;;7.53;4.30;;;;;;;;;;5106816;28;20039;-72
2023/06/12 10:15:40;;;;;;;5.53;4.30;;;;;;;;;;5106086;28;20046;-72
2023/06/12 10:18:08;;;;;;;7.50;4.20;;;;;;;;;;5102804;28;20040;-72
2023/06/12 10:20:35;;;;;;;5.97;3.92;;;;;;;;;;5102886;28;20069;-72
2023/06/12 10:23:02;;;;;;;7.20;4.10;;;;;;;;;;5101235;28;20041;-72
2023/06/12 10:25:28;;;;;;;5.15;4.00;;;;;;;;;;5100872;28;20083;-74
2023/06/12 10:27:55;;;;;;;9.48;4.03;;;;;;;;;;5089511;28;20395;-72
2023/06/12 10:30:21;;;;;;;7.07;4.03;;;;;;;;;;5098312;28;20044;-71
2023/06/12 10:32:47;;;;;;;6.53;4.32;;;;;;;;;;5096938;28;21069;-72
2023/06/12 10:35:13;;;;;;;14.50;4.82;;;;;;;;;;5099140;28;20146;-71
2023/06/12 10:37:46;;;;;;;5.47;3.90;;;;;;;;;;5040915;28;20550;-72
2023/06/12 10:40:18;;;;;;;7.13;4.00;;;;;;;;;;4983004;28;20447;-71
2023/06/12 10:42:53;;;;;;;5.93;3.90;;;;;;;;;;4987065;28;20399;-71
2023/06/12 10:45:19;;;;;;;6.57;4.20;;;;;;;;;;4978794;28;20078;-71
2023/06/12 10:48:07;;;;;;;7.50;4.00;;;;;;;;;;4980204;28;20046;-72
2023/06/12 10:50:33;;;;;;;4.40;4.00;;;;;;;;;;5050273;28;20077;-71
2023/06/12 10:53:04;;;;;;;6.90;4.22;;;;;;;;;;5051305;28;20050;-72
2023/06/12 10:55:31;;;;;;;6.88;3.88;;;;;;;;;;4985254;28;20052;-72
2023/06/12 10:57:59;;;;;;;4.60;4.00;;;;;;;;;;4991195;28;20046;-72
2023/06/12 11:00:32;;;;;;;4.85;3.80;;;;;;;;;;4985656;28;21744;-72
2023/06/12 11:03:00;;;;;;;5.60;4.68;;;;;;;;;;4995446;28;20167;-72
2023/06/12 11:05:26;;;;;;;4.20;3.58;;;;;;;;;;4989595;28;20396;-71
2023/06/12 11:07:57;;;;;;;5.35;3.45;;;;;;;;;;4984282;28;20046;-72
2023/06/12 11:10:23;;;;;;;4.85;4.10;;;;;;;;;;4986407;28;20126;-72
2023/06/12 11:12:51;;;;;;;4.82;3.38;;;;;;;;;;4989612;28;20115;-71
2023/06/12 11:15:17;;;;;;;4.95;3.53;;;;;;;;;;5059494;28;20070;-72
2023/06/12 11:17:43;;;;;;;8.32;3.80;;;;;;;;;;4992852;28;20099;-72
2023/06/12 11:20:10;;;;;;;4.95;3.72;;;;;;;;;;5062096;28;20048;-72
2023/06/12 11:22:36;;;;;;;6.57;3.45;;;;;;;;;;4988074;28;20053;-72
2023/06/12 11:25:03;;;;;;;4.03;3.30;;;;;;;;;;4987947;28;20113;-72
2023/06/12 11:27:30;;;;;;;3.20;2.90;;;;;;;;;;5054946;28;20203;-71
2023/06/12 11:29:56;;;;;;;5.28;3.50;;;;;;;;;;5051912;28;20042;-71
2023/06/12 11:32:22;;;;;;;9.68;3.78;;;;;;;;;;4984284;28;20511;-72
2023/06/12 11:34:51;;;;;;;6.15;3.72;;;;;;;;;;4994475;28;20129;-72
2023/06/12 11:37:17;;;;;;;4.47;3.55;;;;;;;;;;4991015;28;20054;-71
2023/06/12 11:39:44;;;;;;;4.70;3.50;;;;;;;;;;4988345;28;20085;-72
2023/06/12 11:42:13;;;;;;;4.25;3.17;;;;;;;;;;5043763;28;20104;-72
2023/06/12 11:44:39;;;;;;;6.28;3.45;;;;;;;;;;5054058;28;20082;-72
2023/06/12 11:47:06;;;;;;;18.77;4.85;;;;;;;;;;4987401;28;20125;-72
2023/06/12 11:49:34;;;;;;;7.30;3.50;;;;;;;;;;4983940;28;20497;-72
2023/06/12 11:52:00;;;;;;;6.28;3.50;;;;;;;;;;4991685;28;20046;-72
2023/06/12 11:54:26;;;;;;;5.35;3.42;;;;;;;;;;4990916;28;20043;-72
2023/06/12 11:56:53;;;;;;;4.13;3.70;;;;;;;;;;4989464;28;20043;-72
2023/06/12 11:59:21;;;;;;;9.15;4.68;;;;;;;;;;4990550;28;20103;-72
2023/06/12 12:01:48;;;;;;;7.38;5.30;;;;;;;;;;4987615;28;20042;-71
2023/06/12 12:04:17;;;;;;;10.52;5.20;;;;;;;;;;4990039;28;20122;-72
2023/06/12 12:06:50;;;;;;;7.07;4.22;;;;;;;;;;5057100;28;20046;-72
2023/06/12 12:09:22;;;;;;;11.18;5.40;;;;;;;;;;5056776;28;20401;-72
2023/06/12 12:11:48;;;;;;;10.55;5.63;;;;;;;;;;4982778;28;20130;-72
2023/06/12 12:14:14;;;;;;;7.07;4.82;;;;;;;;;;5055660;28;20121;-71
2023/06/12 12:16:43;;;;;;;9.15;5.30;;;;;;;;;;4991549;28;20068;-71
2023/06/12 12:19:25;;;;;;;11.85;6.32;;;;;;;;;;4985747;28;20125;-71
2023/06/12 12:21:51;;;;;;;8.27;5.95;;;;;;;;;;4983515;28;20078;-71
2023/06/12 12:24:17;;;;;;;11.25;6.00;;;;;;;;;;4979117;28;20069;-71
2023/06/12 12:26:48;;;;;;;8.95;4.60;;;;;;;;;;4984453;28;20054;-71
2023/06/12 12:29:15;;;;;;;9.32;5.10;;;;;;;;;;5045515;28;20108;-71
2023/06/12 12:31:41;;;;;;;11.27;5.38;;;;;;;;;;4981384;28;20053;-71
2023/06/12 12:34:08;;;;;;;10.38;5.45;;;;;;;;;;5048794;28;20043;-71
2023/06/12 12:36:34;;;;;;;10.38;5.22;;;;;;;;;;4980609;28;20047;-71
2023/06/12 12:39:00;;;;;;;10.27;5.35;;;;;;;;;;4981183;28;20427;-71
2023/06/12 12:41:27;;;;;;;8.48;4.95;;;;;;;;;;4978997;28;20061;-71
2023/06/12 12:43:56;;;;;;;15.05;5.97;;;;;;;;;;4978115;28;20076;-71
2023/06/12 12:46:25;;;;;;;10.20;5.50;;;;;;;;;;4976051;28;20050;-72
2023/06/12 12:48:52;;;;;;;11.43;5.90;;;;;;;;;;5047197;28;20139;-72
2023/06/12 12:51:18;;;;;;;8.52;5.43;;;;;;;;;;4980433;28;20039;-71
2023/06/12 12:53:45;;;;;;;8.00;5.60;;;;;;;;;;4987186;28;20050;-72
2023/06/12 12:56:13;;;;;;;9.30;5.88;;;;;;;;;;4992534;28;20042;-72
2023/06/12 12:58:39;;;;;;;14.10;5.18;;;;;;;;;;4989301;28;20050;-72
2023/06/12 13:01:05;;;;;;;7.82;5.85;;;;;;;;;;5057872;28;20042;-72
2023/06/12 13:03:37;;;;;;;10.38;5.57;;;;;;;;;;5056900;28;20097;-71
2023/06/12 13:06:04;;;;;;;16.60;6.00;;;;;;;;;;4995133;28;20044;-71
2023/06/12 13:08:30;;;;;;;8.43;6.05;;;;;;;;;;4990068;28;20289;-71
2023/06/12 13:10:56;;;;;;;10.68;6.13;;;;;;;;;;5054330;28;20406;-71
2023/06/12 13:13:22;;;;;;;12.32;7.13;;;;;;;;;;5000489;28;20050;-71
2023/06/12 13:15:48;;;;;;;12.77;6.60;;;;;;;;;;5004639;28;20065;-71
2023/06/12 13:18:18;;;;;;;11.02;5.97;;;;;;;;;;5002723;28;20046;-72
2023/06/12 13:20:45;;;;;;;10.57;6.70;;;;;;;;;;4985183;28;20497;-72
2023/06/12 13:23:11;;;;;;;8.65;6.13;;;;;;;;;;5055476;28;20050;-72
2023/06/12 13:25:38;;;;;;;19.10;7.15;;;;;;;;;;4985364;28;20042;-72
2023/06/12 13:28:05;;;;;;;11.45;6.55;;;;;;;;;;4980953;28;20081;-71
2023/06/12 13:30:31;;;;;;;10.65;5.90;;;;;;;;;;4984707;28;20138;-72
2023/06/12 13:32:57;;;;;;;8.80;5.85;;;;;;;;;;4989245;28;20042;-72
2023/06/12 13:35:23;;;;;;;11.30;6.18;;;;;;;;;;4985602;28;20044;-71
2023/06/12 13:37:49;;;;;;;10.82;6.63;;;;;;;;;;4985188;28;20112;-71
2023/06/12 13:40:16;;;;;;;9.35;6.93;;;;;;;;;;4982574;28;20225;-72
2023/06/12 13:42:44;;;;;;;11.02;6.53;;;;;;;;;;5049794;28;21116;-72
2023/06/12 13:45:10;;;;;;;10.90;7.63;;;;;;;;;;4988469;28;20046;-71
2023/06/12 13:47:36;;;;;;;13.27;7.20;;;;;;;;;;4984283;28;20509;-71
2023/06/12 13:50:03;;;;;;;11.10;7.53;;;;;;;;;;4984478;28;20046;-72
2023/06/12 13:52:30;;;;;;;12.45;6.88;;;;;;;;;;5050776;28;20394;-72
2023/06/12 13:54:56;;;;;;;10.05;6.85;;;;;;;;;;4985341;28;20043;-71
2023/06/12 13:57:22;;;;;;;13.93;8.10;;;;;;;;;;5048033;28;20057;-71
2023/06/12 13:59:48;;;;;;;8.85;6.68;;;;;;;;;;4981415;28;20065;-71
2023/06/12 14:02:14;;;;;;;10.63;6.80;;;;;;;;;;4985519;28;20046;-72
2023/06/12 14:04:40;;;;;;;11.75;6.80;;;;;;;;;;4989878;28;20054;-72
2023/06/12 14:07:06;;;;;;;11.77;6.70;;;;;;;;;;4989910;28;20494;-72
2023/06/12 14:09:32;;;;;;;9.30;6.35;;;;;;;;;;4983189;28;20058;-72